< < Back
Terminal Aerodrome Forecast


Current Version              Previous Versions:   1  2  3  4  5  6  7  8  9  

Terminal Aerodrome Forecast

650
FTUS42 KFFC 221741 CCA
TAFFTY
TAF COR
KFTY 221741Z 2218/2318 09009KT 4SM -DZ BR OVC005
     FM222100 09010KT 6SM BR OVC006
     FM230300 09010KT 2SM -DZ BR OVC004
     FM230800 10008KT 1/2SM -DZ FG OVC002
     FM231500 11007KT 2SM -SHRA BR OVC008=



Latest METAR

660
SAUS70 KWBC 222200 RRL
MTRFTY
METAR KFTY 222153Z 09007KT 10SM -RA OVC006 07/06 A2991 RMK AO2 CIG
005V009 SLP128 P0007 T00720061


USA.gov is the U.S. government's official web portal to all federal, state and local government web resources and services.